sensor_id;sensor_type;location;lat;lon;timestamp;temperature;humidity
61896;DHT22;47835;52.778;5.956;2022-08-30T00:01:26;20.10;99.90
61896;DHT22;47835;52.778;5.956;2022-08-30T00:03:53;20.10;99.90
61896;DHT22;47835;52.778;5.956;2022-08-30T00:06:23;20.10;99.90
61896;DHT22;47835;52.778;5.956;2022-08-30T00:08:50;20.10;99.90
61896;DHT22;47835;52.778;5.956;2022-08-30T00:11:20;20.10;99.90
61896;DHT22;47835;52.778;5.956;2022-08-30T00:13:47;20.20;99.90
61896;DHT22;47835;52.778;5.956;2022-08-30T00:16:15;20.20;99.90
61896;DHT22;47835;52.778;5.956;2022-08-30T00:18:42;20.20;99.90
61896;DHT22;47835;52.778;5.956;2022-08-30T00:21:08;20.20;99.90
61896;DHT22;47835;52.778;5.956;2022-08-30T00:23:34;20.20;99.90
61896;DHT22;47835;52.778;5.956;2022-08-30T00:26:00;20.20;99.90
61896;DHT22;47835;52.778;5.956;2022-08-30T00:28:27;20.10;99.90
61896;DHT22;47835;52.778;5.956;2022-08-30T00:30:53;20.10;99.90
61896;DHT22;47835;52.778;5.956;2022-08-30T00:33:19;20.10;99.90
61896;DHT22;47835;52.778;5.956;2022-08-30T00:35:45;20.10;99.90
61896;DHT22;47835;52.778;5.956;2022-08-30T00:38:12;20.10;99.90
61896;DHT22;47835;52.778;5.956;2022-08-30T00:40:38;20.10;99.90
61896;DHT22;47835;52.778;5.956;2022-08-30T00:43:09;20.10;99.90
61896;DHT22;47835;52.778;5.956;2022-08-30T00:45:36;20.10;99.90
61896;DHT22;47835;52.778;5.956;2022-08-30T00:48:03;20.10;99.90
61896;DHT22;47835;52.778;5.956;2022-08-30T00:50:42;20.10;99.90
61896;DHT22;47835;52.778;5.956;2022-08-30T00:53:13;20.10;99.90
61896;DHT22;47835;52.778;5.956;2022-08-30T00:55:41;20.10;99.90
61896;DHT22;47835;52.778;5.956;2022-08-30T00:58:12;20.10;99.90
61896;DHT22;47835;52.778;5.956;2022-08-30T01:00:39;20.10;99.90
61896;DHT22;47835;52.778;5.956;2022-08-30T01:03:05;20.10;99.90
61896;DHT22;47835;52.778;5.956;2022-08-30T01:05:35;20.10;99.90
61896;DHT22;47835;52.778;5.956;2022-08-30T01:08:03;20.00;99.90
61896;DHT22;47835;52.778;5.956;2022-08-30T01:10:29;20.10;99.90
61896;DHT22;47835;52.778;5.956;2022-08-30T01:12:55;20.00;99.90
61896;DHT22;47835;52.778;5.956;2022-08-30T01:15:21;20.00;99.90
61896;DHT22;47835;52.778;5.956;2022-08-30T01:17:47;20.00;99.90
61896;DHT22;47835;52.778;5.956;2022-08-30T01:20:26;20.00;99.90
61896;DHT22;47835;52.778;5.956;2022-08-30T01:23:03;20.00;99.90
61896;DHT22;47835;52.778;5.956;2022-08-30T01:25:30;20.00;99.90
61896;DHT22;47835;52.778;5.956;2022-08-30T01:28:07;20.00;99.90
61896;DHT22;47835;52.778;5.956;2022-08-30T01:30:35;19.90;99.90
61896;DHT22;47835;52.778;5.956;2022-08-30T01:33:04;20.00;99.90
61896;DHT22;47835;52.778;5.956;2022-08-30T01:35:58;19.90;99.90
61896;DHT22;47835;52.778;5.956;2022-08-30T01:38:29;19.90;99.90
61896;DHT22;47835;52.778;5.956;2022-08-30T01:40:58;20.00;99.90
61896;DHT22;47835;52.778;5.956;2022-08-30T01:43:24;19.90;99.90
61896;DHT22;47835;52.778;5.956;2022-08-30T01:45:51;19.90;99.90
61896;DHT22;47835;52.778;5.956;2022-08-30T01:48:16;19.90;99.90
61896;DHT22;47835;52.778;5.956;2022-08-30T01:50:42;19.90;99.90
61896;DHT22;47835;52.778;5.956;2022-08-30T01:53:08;19.90;99.90
61896;DHT22;47835;52.778;5.956;2022-08-30T01:55:35;19.90;99.90
61896;DHT22;47835;52.778;5.956;2022-08-30T01:58:03;19.90;99.90
61896;DHT22;47835;52.778;5.956;2022-08-30T02:00:28;19.90;99.90
61896;DHT22;47835;52.778;5.956;2022-08-30T02:02:55;19.90;99.90
61896;DHT22;47835;52.778;5.956;2022-08-30T02:05:23;19.90;99.90
61896;DHT22;47835;52.778;5.956;2022-08-30T02:07:49;19.80;99.90
61896;DHT22;47835;52.778;5.956;2022-08-30T02:10:14;19.80;99.90
61896;DHT22;47835;52.778;5.956;2022-08-30T02:12:40;19.80;99.90
61896;DHT22;47835;52.778;5.956;2022-08-30T02:15:06;19.80;99.90
61896;DHT22;47835;52.778;5.956;2022-08-30T02:17:33;19.80;99.90
61896;DHT22;47835;52.778;5.956;2022-08-30T02:19:58;19.80;99.90
61896;DHT22;47835;52.778;5.956;2022-08-30T02:22:24;19.80;99.90
61896;DHT22;47835;52.778;5.956;2022-08-30T02:24:49;19.80;99.90
61896;DHT22;47835;52.778;5.956;2022-08-30T02:27:15;19.80;99.90
61896;DHT22;47835;52.778;5.956;2022-08-30T02:29:41;19.80;99.90
61896;DHT22;47835;52.778;5.956;2022-08-30T02:32:06;19.80;99.90
61896;DHT22;47835;52.778;5.956;2022-08-30T02:34:32;19.80;99.90
61896;DHT22;47835;52.778;5.956;2022-08-30T02:36:57;19.80;99.90
61896;DHT22;47835;52.778;5.956;2022-08-30T02:39:23;19.80;99.90
61896;DHT22;47835;52.778;5.956;2022-08-30T02:41:49;19.80;99.90
61896;DHT22;47835;52.778;5.956;2022-08-30T02:44:14;19.80;99.80
61896;DHT22;47835;52.778;5.956;2022-08-30T02:46:40;19.80;99.80
61896;DHT22;47835;52.778;5.956;2022-08-30T02:49:06;19.80;99.80
61896;DHT22;47835;52.778;5.956;2022-08-30T02:51:33;19.80;99.70
61896;DHT22;47835;52.778;5.956;2022-08-30T02:53:58;19.70;99.70
61896;DHT22;47835;52.778;5.956;2022-08-30T02:56:24;19.80;99.60
61896;DHT22;47835;52.778;5.956;2022-08-30T02:58:49;19.80;99.60
61896;DHT22;47835;52.778;5.956;2022-08-30T03:01:15;19.80;99.50
61896;DHT22;47835;52.778;5.956;2022-08-30T03:03:43;19.70;99.50
61896;DHT22;47835;52.778;5.956;2022-08-30T03:06:11;19.80;99.30
61896;DHT22;47835;52.778;5.956;2022-08-30T03:08:37;19.80;99.30
61896;DHT22;47835;52.778;5.956;2022-08-30T03:11:03;19.70;99.10
61896;DHT22;47835;52.778;5.956;2022-08-30T03:13:29;19.70;99.00
61896;DHT22;47835;52.778;5.956;2022-08-30T03:15:55;19.70;98.80
61896;DHT22;47835;52.778;5.956;2022-08-30T03:18:22;19.70;98.80
61896;DHT22;47835;52.778;5.956;2022-08-30T03:20:49;19.70;98.70
61896;DHT22;47835;52.778;5.956;2022-08-30T03:23:16;19.60;98.60
61896;DHT22;47835;52.778;5.956;2022-08-30T03:25:42;19.60;98.60
61896;DHT22;47835;52.778;5.956;2022-08-30T03:28:08;19.70;98.70
61896;DHT22;47835;52.778;5.956;2022-08-30T03:30:33;19.70;98.60
61896;DHT22;47835;52.778;5.956;2022-08-30T03:33:00;19.60;98.50
61896;DHT22;47835;52.778;5.956;2022-08-30T03:35:26;19.60;98.30
61896;DHT22;47835;52.778;5.956;2022-08-30T03:37:51;19.60;98.30
61896;DHT22;47835;52.778;5.956;2022-08-30T03:40:19;19.60;98.20
61896;DHT22;47835;52.778;5.956;2022-08-30T03:42:45;19.60;98.30
61896;DHT22;47835;52.778;5.956;2022-08-30T03:45:11;19.60;98.20
61896;DHT22;47835;52.778;5.956;2022-08-30T03:47:38;19.60;98.30
61896;DHT22;47835;52.778;5.956;2022-08-30T03:50:04;19.60;98.30
61896;DHT22;47835;52.778;5.956;2022-08-30T03:52:30;19.60;98.40
61896;DHT22;47835;52.778;5.956;2022-08-30T03:54:56;19.60;98.40
61896;DHT22;47835;52.778;5.956;2022-08-30T03:57:21;19.60;98.50
61896;DHT22;47835;52.778;5.956;2022-08-30T03:59:47;19.60;98.60
61896;DHT22;47835;52.778;5.956;2022-08-30T04:02:13;19.60;98.70
61896;DHT22;47835;52.778;5.956;2022-08-30T04:04:38;19.60;98.80
61896;DHT22;47835;52.778;5.956;2022-08-30T04:07:04;19.60;98.70
61896;DHT22;47835;52.778;5.956;2022-08-30T04:09:29;19.60;98.70
61896;DHT22;47835;52.778;5.956;2022-08-30T04:11:55;19.60;98.90
61896;DHT22;47835;52.778;5.956;2022-08-30T04:14:21;19.60;98.90
61896;DHT22;47835;52.778;5.956;2022-08-30T04:16:47;19.60;98.90
61896;DHT22;47835;52.778;5.956;2022-08-30T04:19:13;19.60;98.90
61896;DHT22;47835;52.778;5.956;2022-08-30T04:21:39;19.60;98.90
61896;DHT22;47835;52.778;5.956;2022-08-30T04:24:04;19.60;98.80
61896;DHT22;47835;52.778;5.956;2022-08-30T04:26:30;19.60;98.80
61896;DHT22;47835;52.778;5.956;2022-08-30T04:28:56;19.60;98.80
61896;DHT22;47835;52.778;5.956;2022-08-30T04:31:22;19.60;98.80
61896;DHT22;47835;52.778;5.956;2022-08-30T04:33:48;19.50;97.80
61896;DHT22;47835;52.778;5.956;2022-08-30T04:36:14;19.20;98.80
61896;DHT22;47835;52.778;5.956;2022-08-30T04:38:40;18.90;99.70
61896;DHT22;47835;52.778;5.956;2022-08-30T04:41:17;18.70;99.90
61896;DHT22;47835;52.778;5.956;2022-08-30T04:43:44;18.60;99.90
61896;DHT22;47835;52.778;5.956;2022-08-30T04:46:10;18.70;99.90
61896;DHT22;47835;52.778;5.956;2022-08-30T04:48:38;18.80;99.90
61896;DHT22;47835;52.778;5.956;2022-08-30T04:51:09;18.90;99.90
61896;DHT22;47835;52.778;5.956;2022-08-30T04:53:36;19.00;99.90
61896;DHT22;47835;52.778;5.956;2022-08-30T04:56:13;19.10;99.90
61896;DHT22;47835;52.778;5.956;2022-08-30T04:58:43;19.10;99.90
61896;DHT22;47835;52.778;5.956;2022-08-30T05:01:14;19.20;99.90
61896;DHT22;47835;52.778;5.956;2022-08-30T05:03:40;19.20;99.40
61896;DHT22;47835;52.778;5.956;2022-08-30T05:06:06;19.20;99.20
61896;DHT22;47835;52.778;5.956;2022-08-30T05:08:31;19.30;99.10
61896;DHT22;47835;52.778;5.956;2022-08-30T05:10:57;19.30;99.00
61896;DHT22;47835;52.778;5.956;2022-08-30T05:13:22;19.30;98.90
61896;DHT22;47835;52.778;5.956;2022-08-30T05:15:48;19.30;98.70
61896;DHT22;47835;52.778;5.956;2022-08-30T05:18:14;19.30;98.60
61896;DHT22;47835;52.778;5.956;2022-08-30T05:20:41;19.30;98.50
61896;DHT22;47835;52.778;5.956;2022-08-30T05:23:07;19.30;98.30
61896;DHT22;47835;52.778;5.956;2022-08-30T05:25:36;19.30;98.20
61896;DHT22;47835;52.778;5.956;2022-08-30T05:28:03;19.30;98.20
61896;DHT22;47835;52.778;5.956;2022-08-30T05:30:32;19.30;98.20
61896;DHT22;47835;52.778;5.956;2022-08-30T05:32:58;19.30;98.10
61896;DHT22;47835;52.778;5.956;2022-08-30T05:35:24;19.30;98.10
61896;DHT22;47835;52.778;5.956;2022-08-30T05:37:49;19.30;98.00
61896;DHT22;47835;52.778;5.956;2022-08-30T05:40:16;19.30;98.00
61896;DHT22;47835;52.778;5.956;2022-08-30T05:42:45;19.30;97.90
61896;DHT22;47835;52.778;5.956;2022-08-30T05:45:12;19.30;98.40
61896;DHT22;47835;52.778;5.956;2022-08-30T05:47:38;19.20;97.70
61896;DHT22;47835;52.778;5.956;2022-08-30T05:50:04;19.00;98.30
61896;DHT22;47835;52.778;5.956;2022-08-30T05:52:34;18.70;99.70
61896;DHT22;47835;52.778;5.956;2022-08-30T05:55:00;18.50;99.90
61896;DHT22;47835;52.778;5.956;2022-08-30T05:57:31;18.30;99.90
61896;DHT22;47835;52.778;5.956;2022-08-30T05:59:59;18.20;99.90
61896;DHT22;47835;52.778;5.956;2022-08-30T06:02:25;18.20;99.90
61896;DHT22;47835;52.778;5.956;2022-08-30T06:04:50;18.10;99.90
61896;DHT22;47835;52.778;5.956;2022-08-30T06:07:35;18.10;99.90
61896;DHT22;47835;52.778;5.956;2022-08-30T06:10:00;18.10;99.90
61896;DHT22;47835;52.778;5.956;2022-08-30T06:12:26;18.00;99.90
61896;DHT22;47835;52.778;5.956;2022-08-30T06:14:52;17.90;99.90
61896;DHT22;47835;52.778;5.956;2022-08-30T06:17:18;18.00;99.90
61896;DHT22;47835;52.778;5.956;2022-08-30T06:19:43;18.00;99.90
61896;DHT22;47835;52.778;5.956;2022-08-30T06:22:09;18.00;99.90
61896;DHT22;47835;52.778;5.956;2022-08-30T06:24:34;18.00;99.90
61896;DHT22;47835;52.778;5.956;2022-08-30T06:27:00;18.10;99.90
61896;DHT22;47835;52.778;5.956;2022-08-30T06:29:26;18.10;99.90
61896;DHT22;47835;52.778;5.956;2022-08-30T06:31:51;18.20;99.90
61896;DHT22;47835;52.778;5.956;2022-08-30T06:34:17;18.20;99.90
61896;DHT22;47835;52.778;5.956;2022-08-30T06:36:43;18.20;99.90
61896;DHT22;47835;52.778;5.956;2022-08-30T06:39:09;18.20;99.90
61896;DHT22;47835;52.778;5.956;2022-08-30T06:41:36;18.30;99.90
61896;DHT22;47835;52.778;5.956;2022-08-30T06:44:03;18.40;99.90
61896;DHT22;47835;52.778;5.956;2022-08-30T06:46:32;18.50;99.90
61896;DHT22;47835;52.778;5.956;2022-08-30T06:48:58;18.60;99.90
61896;DHT22;47835;52.778;5.956;2022-08-30T06:51:27;18.80;99.90
61896;DHT22;47835;52.778;5.956;2022-08-30T06:53:54;18.80;99.90
61896;DHT22;47835;52.778;5.956;2022-08-30T06:56:21;18.80;99.90
61896;DHT22;47835;52.778;5.956;2022-08-30T06:58:47;18.90;99.90
61896;DHT22;47835;52.778;5.956;2022-08-30T07:01:15;18.90;99.90
61896;DHT22;47835;52.778;5.956;2022-08-30T07:03:41;19.00;99.90
61896;DHT22;47835;52.778;5.956;2022-08-30T07:06:07;19.10;99.90
61896;DHT22;47835;52.778;5.956;2022-08-30T07:08:34;19.20;99.90
61896;DHT22;47835;52.778;5.956;2022-08-30T07:10:59;19.30;99.90
61896;DHT22;47835;52.778;5.956;2022-08-30T07:13:26;19.30;99.90
61896;DHT22;47835;52.778;5.956;2022-08-30T07:15:52;19.40;99.90
61896;DHT22;47835;52.778;5.956;2022-08-30T07:18:18;19.50;99.90
61896;DHT22;47835;52.778;5.956;2022-08-30T07:21:08;19.50;99.90
61896;DHT22;47835;52.778;5.956;2022-08-30T07:23:34;19.50;99.90
61896;DHT22;47835;52.778;5.956;2022-08-30T07:26:10;19.60;99.90
61896;DHT22;47835;52.778;5.956;2022-08-30T07:28:37;19.60;99.60
61896;DHT22;47835;52.778;5.956;2022-08-30T07:31:03;19.60;99.00
61896;DHT22;47835;52.778;5.956;2022-08-30T07:33:29;19.70;99.00
61896;DHT22;47835;52.778;5.956;2022-08-30T07:35:55;19.70;99.00
61896;DHT22;47835;52.778;5.956;2022-08-30T07:38:21;19.80;98.80
61896;DHT22;47835;52.778;5.956;2022-08-30T07:40:46;19.70;98.70
61896;DHT22;47835;52.778;5.956;2022-08-30T07:43:12;19.80;98.30
61896;DHT22;47835;52.778;5.956;2022-08-30T07:45:38;19.80;98.20
61896;DHT22;47835;52.778;5.956;2022-08-30T07:48:04;19.80;98.00
61896;DHT22;47835;52.778;5.956;2022-08-30T07:50:31;19.80;97.90
61896;DHT22;47835;52.778;5.956;2022-08-30T07:52:57;19.90;97.50
61896;DHT22;47835;52.778;5.956;2022-08-30T07:55:23;19.90;97.10
61896;DHT22;47835;52.778;5.956;2022-08-30T07:57:48;19.90;97.30
61896;DHT22;47835;52.778;5.956;2022-08-30T08:00:14;19.90;97.00
61896;DHT22;47835;52.778;5.956;2022-08-30T08:02:40;19.90;96.60
61896;DHT22;47835;52.778;5.956;2022-08-30T08:05:07;20.00;96.50
61896;DHT22;47835;52.778;5.956;2022-08-30T08:07:34;20.00;95.10
61896;DHT22;47835;52.778;5.956;2022-08-30T08:10:00;20.00;94.90
61896;DHT22;47835;52.778;5.956;2022-08-30T08:12:26;20.00;94.20
61896;DHT22;47835;52.778;5.956;2022-08-30T08:14:52;20.00;94.00
61896;DHT22;47835;52.778;5.956;2022-08-30T08:17:17;20.00;92.90
61896;DHT22;47835;52.778;5.956;2022-08-30T08:19:43;20.00;93.20
61896;DHT22;47835;52.778;5.956;2022-08-30T08:22:08;20.00;92.50
61896;DHT22;47835;52.778;5.956;2022-08-30T08:24:34;20.00;92.10
61896;DHT22;47835;52.778;5.956;2022-08-30T08:26:59;20.00;91.50
61896;DHT22;47835;52.778;5.956;2022-08-30T08:29:25;20.10;91.80
61896;DHT22;47835;52.778;5.956;2022-08-30T08:31:53;20.10;90.60
61896;DHT22;47835;52.778;5.956;2022-08-30T08:34:18;20.10;90.60
61896;DHT22;47835;52.778;5.956;2022-08-30T08:36:48;20.10;90.30
61896;DHT22;47835;52.778;5.956;2022-08-30T08:39:14;20.10;90.60
61896;DHT22;47835;52.778;5.956;2022-08-30T08:41:49;20.10;91.20
61896;DHT22;47835;52.778;5.956;2022-08-30T08:44:37;20.10;91.20
61896;DHT22;47835;52.778;5.956;2022-08-30T08:47:08;20.10;90.90
61896;DHT22;47835;52.778;5.956;2022-08-30T08:49:37;20.10;90.90
61896;DHT22;47835;52.778;5.956;2022-08-30T08:52:06;20.10;91.10
61896;DHT22;47835;52.778;5.956;2022-08-30T08:54:51;20.10;90.10
61896;DHT22;47835;52.778;5.956;2022-08-30T08:57:20;20.10;90.20
61896;DHT22;47835;52.778;5.956;2022-08-30T08:59:46;20.10;89.10
61896;DHT22;47835;52.778;5.956;2022-08-30T09:02:27;20.20;91.00
61896;DHT22;47835;52.778;5.956;2022-08-30T09:04:56;20.20;90.70
61896;DHT22;47835;52.778;5.956;2022-08-30T09:07:29;20.20;89.60
61896;DHT22;47835;52.778;5.956;2022-08-30T09:09:57;20.30;90.50
61896;DHT22;47835;52.778;5.956;2022-08-30T09:12:25;20.20;90.90
61896;DHT22;47835;52.778;5.956;2022-08-30T09:14:54;20.30;90.70
61896;DHT22;47835;52.778;5.956;2022-08-30T09:17:21;20.30;89.20
61896;DHT22;47835;52.778;5.956;2022-08-30T09:22:35;20.30;90.20
61896;DHT22;47835;52.778;5.956;2022-08-30T09:27:40;20.40;86.90
61896;DHT22;47835;52.778;5.956;2022-08-30T09:32:35;20.30;87.40
61896;DHT22;47835;52.778;5.956;2022-08-30T09:35:03;20.40;87.00
61896;DHT22;47835;52.778;5.956;2022-08-30T09:37:37;20.30;88.70
61896;DHT22;47835;52.778;5.956;2022-08-30T09:40:12;20.40;88.20
61896;DHT22;47835;52.778;5.956;2022-08-30T09:42:39;20.40;86.00
61896;DHT22;47835;52.778;5.956;2022-08-30T09:45:16;20.40;86.20
61896;DHT22;47835;52.778;5.956;2022-08-30T09:47:43;20.40;86.00
61896;DHT22;47835;52.778;5.956;2022-08-30T09:50:12;20.30;88.80
61896;DHT22;47835;52.778;5.956;2022-08-30T09:53:09;20.40;86.30
61896;DHT22;47835;52.778;5.956;2022-08-30T10:00:51;20.40;87.40
61896;DHT22;47835;52.778;5.956;2022-08-30T10:03:51;20.40;86.60
61896;DHT22;47835;52.778;5.956;2022-08-30T10:06:35;20.40;84.90
61896;DHT22;47835;52.778;5.956;2022-08-30T10:09:27;20.40;87.80
61896;DHT22;47835;52.778;5.956;2022-08-30T10:12:21;20.40;85.50
61896;DHT22;47835;52.778;5.956;2022-08-30T10:17:55;20.40;84.40
61896;DHT22;47835;52.778;5.956;2022-08-30T10:20:34;20.40;83.60
61896;DHT22;47835;52.778;5.956;2022-08-30T10:26:08;20.40;85.00
61896;DHT22;47835;52.778;5.956;2022-08-30T10:28:45;20.40;85.80
61896;DHT22;47835;52.778;5.956;2022-08-30T10:31:24;20.40;81.00
61896;DHT22;47835;52.778;5.956;2022-08-30T10:33:56;20.40;80.90
61896;DHT22;47835;52.778;5.956;2022-08-30T10:36:31;20.40;83.50
61896;DHT22;47835;52.778;5.956;2022-08-30T10:38:58;20.40;81.30
61896;DHT22;47835;52.778;5.956;2022-08-30T10:41:34;20.40;81.00
61896;DHT22;47835;52.778;5.956;2022-08-30T10:44:10;20.40;78.20
61896;DHT22;47835;52.778;5.956;2022-08-30T10:49:21;20.50;79.20
61896;DHT22;47835;52.778;5.956;2022-08-30T10:51:54;20.50;78.90
61896;DHT22;47835;52.778;5.956;2022-08-30T10:56:56;20.50;80.40
61896;DHT22;47835;52.778;5.956;2022-08-30T10:59:22;20.50;78.60
61896;DHT22;47835;52.778;5.956;2022-08-30T11:10:25;20.50;77.70
61896;DHT22;47835;52.778;5.956;2022-08-30T11:13:20;20.60;78.90
61896;DHT22;47835;52.778;5.956;2022-08-30T11:16:13;20.50;77.00
61896;DHT22;47835;52.778;5.956;2022-08-30T11:18:52;20.60;77.40
61896;DHT22;47835;52.778;5.956;2022-08-30T11:29:42;20.60;80.20
61896;DHT22;47835;52.778;5.956;2022-08-30T11:37:34;20.60;72.70
61896;DHT22;47835;52.778;5.956;2022-08-30T11:40:41;20.60;74.40
61896;DHT22;47835;52.778;5.956;2022-08-30T11:43:47;20.50;72.10
61896;DHT22;47835;52.778;5.956;2022-08-30T11:48:53;20.50;72.80
61896;DHT22;47835;52.778;5.956;2022-08-30T11:51:44;20.50;72.10
61896;DHT22;47835;52.778;5.956;2022-08-30T11:57:20;20.50;73.70
61896;DHT22;47835;52.778;5.956;2022-08-30T12:05:07;20.60;75.70
61896;DHT22;47835;52.778;5.956;2022-08-30T12:07:57;20.60;72.80
61896;DHT22;47835;52.778;5.956;2022-08-30T12:10:36;20.50;73.10
61896;DHT22;47835;52.778;5.956;2022-08-30T12:13:02;20.60;75.00
61896;DHT22;47835;52.778;5.956;2022-08-30T12:15:55;20.60;74.90
61896;DHT22;47835;52.778;5.956;2022-08-30T12:24:06;20.60;77.00
61896;DHT22;47835;52.778;5.956;2022-08-30T12:26:43;20.60;76.30
61896;DHT22;47835;52.778;5.956;2022-08-30T12:29:24;20.60;76.20
61896;DHT22;47835;52.778;5.956;2022-08-30T12:32:01;20.50;75.10
61896;DHT22;47835;52.778;5.956;2022-08-30T12:34:32;20.60;73.50
61896;DHT22;47835;52.778;5.956;2022-08-30T12:37:18;20.60;77.50
61896;DHT22;47835;52.778;5.956;2022-08-30T12:39:45;20.60;76.50
61896;DHT22;47835;52.778;5.956;2022-08-30T12:42:26;20.60;75.00
61896;DHT22;47835;52.778;5.956;2022-08-30T12:44:55;20.60;73.30
61896;DHT22;47835;52.778;5.956;2022-08-30T12:47:44;20.60;73.30
61896;DHT22;47835;52.778;5.956;2022-08-30T12:50:14;20.60;74.30
61896;DHT22;47835;52.778;5.956;2022-08-30T12:52:45;20.60;74.10
61896;DHT22;47835;52.778;5.956;2022-08-30T12:55:21;20.70;73.40
61896;DHT22;47835;52.778;5.956;2022-08-30T12:58:06;20.60;73.10
61896;DHT22;47835;52.778;5.956;2022-08-30T13:00:41;20.60;75.00
61896;DHT22;47835;52.778;5.956;2022-08-30T13:03:33;20.60;75.20
61896;DHT22;47835;52.778;5.956;2022-08-30T13:06:00;20.60;74.80
61896;DHT22;47835;52.778;5.956;2022-08-30T13:08:49;20.60;73.30
61896;DHT22;47835;52.778;5.956;2022-08-30T13:13:55;20.60;71.10
61896;DHT22;47835;52.778;5.956;2022-08-30T13:16:35;20.60;72.50
61896;DHT22;47835;52.778;5.956;2022-08-30T13:19:33;20.60;71.70
61896;DHT22;47835;52.778;5.956;2022-08-30T13:22:00;20.60;70.90
61896;DHT22;47835;52.778;5.956;2022-08-30T13:24:27;20.60;72.20
61896;DHT22;47835;52.778;5.956;2022-08-30T13:27:01;20.60;71.30
61896;DHT22;47835;52.778;5.956;2022-08-30T13:29:28;20.60;71.00
61896;DHT22;47835;52.778;5.956;2022-08-30T13:31:55;20.60;72.30
61896;DHT22;47835;52.778;5.956;2022-08-30T13:34:21;20.60;72.90
61896;DHT22;47835;52.778;5.956;2022-08-30T13:36:53;20.60;74.00
61896;DHT22;47835;52.778;5.956;2022-08-30T13:39:19;20.60;72.50
61896;DHT22;47835;52.778;5.956;2022-08-30T13:41:45;20.60;70.80
61896;DHT22;47835;52.778;5.956;2022-08-30T13:44:10;20.60;71.70
61896;DHT22;47835;52.778;5.956;2022-08-30T13:46:39;20.60;73.10
61896;DHT22;47835;52.778;5.956;2022-08-30T13:49:07;20.60;73.20
61896;DHT22;47835;52.778;5.956;2022-08-30T13:51:34;20.60;74.00
61896;DHT22;47835;52.778;5.956;2022-08-30T13:54:00;20.60;74.10
61896;DHT22;47835;52.778;5.956;2022-08-30T13:56:27;20.60;73.40
61896;DHT22;47835;52.778;5.956;2022-08-30T13:59:00;20.60;72.10
61896;DHT22;47835;52.778;5.956;2022-08-30T14:01:26;20.60;72.40
61896;DHT22;47835;52.778;5.956;2022-08-30T14:03:52;20.60;71.80
61896;DHT22;47835;52.778;5.956;2022-08-30T14:06:18;20.60;71.10
61896;DHT22;47835;52.778;5.956;2022-08-30T14:08:44;20.60;70.80
61896;DHT22;47835;52.778;5.956;2022-08-30T14:11:11;20.60;73.20
61896;DHT22;47835;52.778;5.956;2022-08-30T14:13:38;20.60;74.30
61896;DHT22;47835;52.778;5.956;2022-08-30T14:16:06;20.60;73.70
61896;DHT22;47835;52.778;5.956;2022-08-30T14:18:32;20.60;73.10
61896;DHT22;47835;52.778;5.956;2022-08-30T14:20:57;20.60;70.70
61896;DHT22;47835;52.778;5.956;2022-08-30T14:23:24;20.70;71.20
61896;DHT22;47835;52.778;5.956;2022-08-30T14:25:51;20.70;71.80
61896;DHT22;47835;52.778;5.956;2022-08-30T14:28:17;20.70;72.10
61896;DHT22;47835;52.778;5.956;2022-08-30T14:30:42;20.60;73.60
61896;DHT22;47835;52.778;5.956;2022-08-30T14:33:08;20.70;72.80
61896;DHT22;47835;52.778;5.956;2022-08-30T14:35:34;20.60;72.50
61896;DHT22;47835;52.778;5.956;2022-08-30T14:38:00;20.70;74.60
61896;DHT22;47835;52.778;5.956;2022-08-30T14:40:25;20.70;75.30
61896;DHT22;47835;52.778;5.956;2022-08-30T14:42:51;20.70;75.60
61896;DHT22;47835;52.778;5.956;2022-08-30T14:45:16;20.60;75.50
61896;DHT22;47835;52.778;5.956;2022-08-30T14:47:42;20.60;75.20
61896;DHT22;47835;52.778;5.956;2022-08-30T14:50:08;20.60;75.00
61896;DHT22;47835;52.778;5.956;2022-08-30T14:52:34;20.70;75.30
61896;DHT22;47835;52.778;5.956;2022-08-30T14:55:00;20.60;74.10
61896;DHT22;47835;52.778;5.956;2022-08-30T14:57:26;20.70;74.40
61896;DHT22;47835;52.778;5.956;2022-08-30T14:59:52;20.70;74.00
61896;DHT22;47835;52.778;5.956;2022-08-30T15:02:18;20.70;75.80
61896;DHT22;47835;52.778;5.956;2022-08-30T15:04:43;20.70;75.80
61896;DHT22;47835;52.778;5.956;2022-08-30T15:07:09;20.70;76.40
61896;DHT22;47835;52.778;5.956;2022-08-30T15:09:34;20.70;76.70
61896;DHT22;47835;52.778;5.956;2022-08-30T15:12:01;20.70;76.10
61896;DHT22;47835;52.778;5.956;2022-08-30T15:14:28;20.70;76.80
61896;DHT22;47835;52.778;5.956;2022-08-30T15:16:55;20.70;76.90
61896;DHT22;47835;52.778;5.956;2022-08-30T15:19:22;20.80;78.10
61896;DHT22;47835;52.778;5.956;2022-08-30T15:21:48;20.70;77.70
61896;DHT22;47835;52.778;5.956;2022-08-30T15:24:18;20.80;77.20
61896;DHT22;47835;52.778;5.956;2022-08-30T15:26:44;20.80;79.90
61896;DHT22;47835;52.778;5.956;2022-08-30T15:29:12;20.90;81.50
61896;DHT22;47835;52.778;5.956;2022-08-30T15:31:38;20.90;82.10
61896;DHT22;47835;52.778;5.956;2022-08-30T15:34:09;20.90;83.10
61896;DHT22;47835;52.778;5.956;2022-08-30T15:36:36;20.90;84.10
61896;DHT22;47835;52.778;5.956;2022-08-30T15:39:02;20.90;85.60
61896;DHT22;47835;52.778;5.956;2022-08-30T15:41:28;21.00;85.80
61896;DHT22;47835;52.778;5.956;2022-08-30T15:43:55;21.00;86.90
61896;DHT22;47835;52.778;5.956;2022-08-30T15:48:50;21.00;85.60
61896;DHT22;47835;52.778;5.956;2022-08-30T15:51:17;21.00;84.90
61896;DHT22;47835;52.778;5.956;2022-08-30T15:53:44;21.00;84.90
61896;DHT22;47835;52.778;5.956;2022-08-30T15:56:10;21.00;85.30
61896;DHT22;47835;52.778;5.956;2022-08-30T15:58:36;21.00;86.10
61896;DHT22;47835;52.778;5.956;2022-08-30T16:01:03;21.00;87.40
61896;DHT22;47835;52.778;5.956;2022-08-30T16:03:30;21.00;88.40
61896;DHT22;47835;52.778;5.956;2022-08-30T16:05:56;21.00;89.20
61896;DHT22;47835;52.778;5.956;2022-08-30T16:08:22;21.00;90.10
61896;DHT22;47835;52.778;5.956;2022-08-30T16:10:48;21.00;89.60
61896;DHT22;47835;52.778;5.956;2022-08-30T16:13:14;21.00;88.60
61896;DHT22;47835;52.778;5.956;2022-08-30T16:15:40;21.10;87.80
61896;DHT22;47835;52.778;5.956;2022-08-30T16:18:09;21.00;87.70
61896;DHT22;47835;52.778;5.956;2022-08-30T16:20:35;21.00;88.00
61896;DHT22;47835;52.778;5.956;2022-08-30T16:23:01;21.00;86.40
61896;DHT22;47835;52.778;5.956;2022-08-30T16:25:26;21.00;86.10
61896;DHT22;47835;52.778;5.956;2022-08-30T16:27:52;21.00;85.10
61896;DHT22;47835;52.778;5.956;2022-08-30T16:30:18;21.00;84.20
61896;DHT22;47835;52.778;5.956;2022-08-30T16:32:43;21.10;83.50
61896;DHT22;47835;52.778;5.956;2022-08-30T16:35:10;21.10;81.60
61896;DHT22;47835;52.778;5.956;2022-08-30T16:37:36;21.00;81.50
61896;DHT22;47835;52.778;5.956;2022-08-30T16:40:03;21.00;80.80
61896;DHT22;47835;52.778;5.956;2022-08-30T16:42:28;21.00;80.70
61896;DHT22;47835;52.778;5.956;2022-08-30T16:44:54;21.00;80.20
61896;DHT22;47835;52.778;5.956;2022-08-30T16:47:20;21.00;79.50
61896;DHT22;47835;52.778;5.956;2022-08-30T16:49:45;21.00;79.50